createdAt,value
2018-10-19T00:00:29.978Z,17.27
2018-10-19T00:02:58.869Z,18.43
2018-10-19T00:05:27.755Z,15.13
2018-10-19T00:07:56.411Z,17.47
2018-10-19T00:10:25.170Z,18.63
2018-10-19T00:12:54.230Z,17.20
2018-10-19T00:15:23.063Z,17.97
2018-10-19T00:17:51.946Z,18.37
2018-10-19T00:20:20.649Z,14.03
2018-10-19T00:22:49.463Z,16.93
2018-10-19T00:25:18.355Z,18.07
2018-10-19T00:27:47.239Z,16.60
2018-10-19T00:30:16.145Z,19.80
2018-10-19T00:32:44.806Z,17.20
2018-10-19T00:35:13.636Z,16.63
2018-10-19T00:37:42.475Z,21.07
2018-10-19T00:40:11.431Z,22.90
2018-10-19T00:42:40.334Z,19.63
2018-10-19T00:45:09.272Z,19.63
2018-10-19T00:47:38.141Z,19.83
2018-10-19T00:50:07.063Z,23.50
2018-10-19T00:52:35.729Z,18.50
2018-10-19T00:55:04.397Z,20.00
2018-10-19T00:57:33.161Z,20.57
2018-10-19T01:00:02.071Z,20.13
2018-10-19T01:02:30.966Z,24.17
2018-10-19T01:04:59.909Z,22.93
2018-10-19T01:07:28.678Z,18.80
2018-10-19T01:09:57.559Z,20.50
2018-10-19T01:12:26.454Z,19.33
2018-10-19T01:14:55.140Z,18.10
2018-10-19T01:17:23.643Z,23.40
2018-10-19T01:19:52.411Z,20.33
2018-10-19T01:22:21.298Z,20.20
2018-10-19T01:24:50.191Z,19.13
2018-10-19T01:27:19.092Z,20.77
2018-10-19T01:29:47.832Z,19.83
2018-10-19T01:32:16.325Z,21.60
2018-10-19T01:34:44.859Z,20.90
2018-10-19T01:37:13.626Z,20.03
2018-10-19T01:39:42.530Z,23.03
2018-10-19T01:42:11.177Z,21.27
2018-10-19T01:44:39.712Z,18.23
2018-10-19T01:47:08.598Z,21.20
2018-10-19T01:49:37.451Z,22.43
2018-10-19T01:52:06.110Z,23.83
2018-10-19T01:54:34.755Z,22.47
2018-10-19T01:57:03.578Z,23.13
2018-10-19T01:59:32.182Z,21.17
2018-10-19T02:02:00.713Z,26.67
2018-10-19T02:04:29.271Z,24.00
2018-10-19T02:06:58.043Z,20.87
2018-10-19T02:09:26.711Z,25.53
2018-10-19T02:11:55.245Z,26.97
2018-10-19T02:14:23.798Z,21.90
2018-10-19T02:16:52.550Z,22.27
2018-10-19T02:19:21.205Z,22.93
2018-10-19T02:21:49.953Z,23.67
2018-10-19T02:24:18.495Z,24.77
2018-10-19T02:26:47.262Z,21.57
2018-10-19T02:29:16.173Z,24.23
2018-10-19T02:31:44.849Z,28.07
2018-10-19T02:34:13.606Z,23.60
2018-10-19T02:36:42.527Z,22.97
2018-10-19T02:39:11.473Z,26.07
2018-10-19T02:41:40.318Z,20.93
2018-10-19T02:44:09.187Z,20.73
2018-10-19T02:46:38.074Z,25.40
2018-10-19T02:49:07.013Z,21.90
2018-10-19T02:51:36.241Z,22.33
2018-10-19T02:54:05.296Z,29.97
2018-10-19T02:56:34.031Z,25.00
2018-10-19T02:59:02.820Z,22.40
2018-10-19T03:01:31.478Z,21.37
2018-10-19T03:04:00.123Z,24.97
2018-10-19T03:06:28.883Z,20.53
2018-10-19T03:08:57.621Z,22.53
2018-10-19T03:11:26.339Z,24.83
2018-10-19T03:13:54.949Z,24.80
2018-10-19T03:16:23.485Z,22.20
2018-10-19T03:18:52.256Z,22.87
2018-10-19T03:21:21.155Z,25.27
2018-10-19T03:23:49.926Z,26.97
2018-10-19T03:26:18.454Z,24.97
2018-10-19T03:28:46.977Z,25.53
2018-10-19T03:31:15.822Z,24.53
2018-10-19T03:33:44.426Z,25.60
2018-10-19T03:36:13.207Z,27.60
2018-10-19T03:38:41.874Z,25.90
2018-10-19T03:41:10.687Z,25.13
2018-10-19T03:43:39.531Z,22.40
2018-10-19T03:46:08.443Z,25.23
2018-10-19T03:48:37.370Z,26.40
2018-10-19T03:51:06.446Z,22.13
2018-10-19T03:53:35.077Z,27.93
2018-10-19T03:56:03.854Z,23.50
2018-10-19T03:58:32.545Z,23.60
2018-10-19T04:01:01.296Z,24.60
2018-10-19T04:03:30.001Z,26.57
2018-10-19T04:05:58.731Z,28.87
2018-10-19T04:08:27.627Z,29.80
2018-10-19T04:10:56.536Z,28.73
2018-10-19T04:13:25.202Z,31.00
2018-10-19T04:15:53.735Z,31.77
2018-10-19T04:18:22.544Z,26.47
2018-10-19T04:20:51.189Z,25.50
2018-10-19T04:23:19.967Z,23.10
2018-10-19T04:25:48.619Z,25.87
2018-10-19T04:28:17.146Z,25.27
2018-10-19T04:30:45.956Z,27.50
2018-10-19T04:33:14.680Z,27.60
2018-10-19T04:35:43.388Z,24.77
2018-10-19T04:38:12.038Z,25.90
2018-10-19T04:40:40.806Z,24.13
2018-10-19T04:43:09.723Z,24.20
2018-10-19T04:45:38.367Z,25.23
2018-10-19T04:48:07.115Z,27.70
2018-10-19T04:50:35.818Z,29.20
2018-10-19T04:53:04.667Z,26.53
2018-10-19T04:55:33.259Z,26.97
2018-10-19T04:58:02.000Z,25.67
2018-10-19T05:00:30.657Z,22.73
2018-10-19T05:02:59.223Z,25.90
2018-10-19T05:05:28.085Z,25.40
2018-10-19T05:07:56.667Z,27.50
2018-10-19T05:10:25.133Z,25.13
2018-10-19T05:12:53.717Z,26.50
2018-10-19T05:15:22.467Z,22.33
2018-10-19T05:17:51.351Z,26.37
2018-10-19T05:20:20.234Z,29.50
2018-10-19T05:22:49.118Z,23.83
2018-10-19T05:25:17.774Z,26.23
2018-10-19T05:27:46.305Z,24.30
2018-10-19T05:30:14.842Z,26.37
2018-10-19T05:32:43.503Z,23.57
2018-10-19T05:35:12.124Z,25.80
2018-10-19T05:37:41.142Z,27.47
2018-10-19T05:40:10.811Z,27.00
2018-10-19T05:42:40.050Z,25.83
2018-10-19T05:45:09.643Z,24.97
2018-10-19T05:47:38.393Z,24.97
2018-10-19T05:50:08.288Z,30.13
2018-10-19T05:52:37.795Z,27.33
2018-10-19T05:55:06.543Z,23.93
2018-10-19T05:57:35.589Z,30.97
2018-10-19T06:00:05.545Z,27.03
2018-10-19T06:02:34.535Z,26.60
2018-10-19T06:05:03.190Z,29.80
2018-10-19T06:07:31.932Z,24.00
2018-10-19T06:10:00.617Z,25.73
2018-10-19T06:12:29.387Z,26.87
2018-10-19T06:14:58.029Z,22.87
2018-10-19T06:17:26.552Z,28.20
2018-10-19T06:19:55.361Z,27.40
2018-10-19T06:22:23.958Z,28.83
2018-10-19T06:24:52.759Z,29.53
2018-10-19T06:27:21.609Z,31.13
2018-10-19T06:29:50.245Z,30.47
2018-10-19T06:32:19.417Z,28.00
2018-10-19T06:34:48.079Z,30.40
2018-10-19T06:37:16.585Z,26.33
2018-10-19T06:39:45.122Z,33.80
2018-10-19T06:42:13.888Z,35.87
2018-10-19T06:44:42.807Z,29.03
2018-10-19T06:47:11.733Z,30.23
2018-10-19T06:49:40.313Z,32.00
2018-10-19T06:52:08.938Z,38.87
2018-10-19T06:54:37.417Z,34.33
2018-10-19T06:57:06.007Z,27.80
2018-10-19T06:59:34.535Z,34.87
2018-10-19T07:02:03.104Z,30.23
2018-10-19T07:04:31.829Z,32.80
2018-10-19T07:07:00.569Z,29.60
2018-10-19T07:09:29.295Z,34.07
2018-10-19T07:11:58.298Z,29.00
2018-10-19T07:14:26.937Z,32.23
2018-10-19T07:16:55.437Z,29.63
2018-10-19T07:19:23.992Z,29.03
2018-10-19T07:21:52.843Z,30.30
2018-10-19T07:24:21.623Z,32.17
2018-10-19T07:26:50.277Z,32.87
2018-10-19T07:29:19.102Z,33.43
2018-10-19T07:31:47.799Z,30.27
2018-10-19T07:34:16.281Z,34.47
2018-10-19T07:36:44.809Z,35.27
2018-10-19T07:39:13.575Z,32.40
2018-10-19T07:41:42.450Z,37.50
2018-10-19T07:44:11.391Z,35.53
2018-10-19T07:46:40.258Z,33.77
2018-10-19T07:49:08.932Z,37.37
2018-10-19T07:51:37.717Z,33.53
2018-10-19T07:54:06.689Z,34.50
2018-10-19T07:56:35.557Z,41.27
2018-10-19T07:59:04.779Z,36.73
2018-10-19T08:01:33.557Z,38.07
2018-10-19T08:04:02.526Z,34.90
2018-10-19T08:06:31.422Z,38.53
2018-10-19T08:08:59.957Z,40.20
2018-10-19T08:11:28.794Z,40.83
2018-10-19T08:13:57.719Z,38.63
2018-10-19T08:16:26.558Z,38.97
2018-10-19T08:18:55.467Z,41.97
2018-10-19T08:21:24.142Z,41.80
2018-10-19T08:23:52.732Z,38.60
2018-10-19T08:26:21.558Z,41.50
2018-10-19T08:28:50.230Z,45.93
2018-10-19T08:31:19.023Z,42.47
2018-10-19T08:33:47.955Z,42.93
2018-10-19T08:36:16.890Z,45.70
2018-10-19T08:38:45.811Z,42.57
2018-10-19T08:41:14.818Z,44.70
2018-10-19T08:43:43.662Z,39.77
2018-10-19T08:46:17.992Z,50.10
2018-10-19T08:48:46.678Z,49.07
2018-10-19T08:51:15.309Z,45.53
2018-10-19T08:53:43.811Z,40.90
2018-10-19T08:56:12.342Z,46.37
2018-10-19T08:58:40.882Z,44.20
2018-10-19T09:01:09.562Z,42.83
2018-10-19T09:03:38.378Z,44.77
2018-10-19T09:06:07.026Z,43.10
2018-10-19T09:08:35.834Z,44.73
2018-10-19T09:11:04.905Z,51.53
2018-10-19T09:13:33.662Z,41.43
2018-10-19T09:16:02.601Z,44.57
2018-10-19T09:18:31.596Z,42.80
2018-10-19T09:21:00.241Z,45.50
2018-10-19T09:23:28.998Z,48.57
2018-10-19T09:25:57.930Z,46.53
2018-10-19T09:28:26.864Z,48.23
2018-10-19T09:30:55.797Z,41.77
2018-10-19T09:33:24.687Z,45.07
2018-10-19T09:35:53.761Z,46.93
2018-10-19T09:38:22.618Z,42.53
2018-10-19T09:40:51.572Z,41.03
2018-10-19T09:43:20.464Z,48.23
2018-10-19T09:45:49.362Z,44.07
2018-10-19T09:48:18.566Z,44.57
2018-10-19T09:50:47.482Z,43.03
2018-10-19T09:53:16.214Z,45.47
2018-10-19T09:55:44.738Z,45.47
2018-10-19T09:58:13.519Z,46.13
2018-10-19T10:00:47.775Z,54.03
2018-10-19T10:03:16.802Z,48.30
2018-10-19T10:05:46.018Z,51.13
2018-10-19T10:08:14.682Z,52.90
2018-10-19T10:10:43.486Z,42.70
2018-10-19T10:13:12.486Z,41.50
2018-10-19T10:15:41.347Z,40.33
2018-10-19T10:18:10.226Z,43.77
2018-10-19T10:20:39.134Z,43.70
2018-10-19T10:23:07.861Z,44.17
2018-10-19T10:25:36.681Z,40.70
2018-10-19T10:28:05.672Z,43.43
2018-10-19T10:30:34.574Z,46.70
2018-10-19T10:33:03.238Z,45.73
2018-10-19T10:35:32.079Z,43.97
2018-10-19T10:38:00.978Z,43.13
2018-10-19T10:40:29.906Z,40.87
2018-10-19T10:42:58.887Z,44.40
2018-10-19T10:45:27.751Z,44.53
2018-10-19T10:47:56.427Z,45.37
2018-10-19T10:50:25.207Z,47.73
2018-10-19T10:52:53.875Z,45.40
2018-10-19T10:55:22.700Z,47.67
2018-10-19T10:57:51.611Z,45.30
2018-10-19T11:00:20.547Z,44.63
2018-10-19T11:02:49.454Z,49.23
2018-10-19T11:05:18.387Z,41.47
2018-10-19T11:07:47.270Z,39.93
2018-10-19T11:10:15.938Z,41.70
2018-10-19T11:12:44.702Z,42.83
2018-10-19T11:15:13.643Z,45.60
2018-10-19T11:17:42.546Z,39.07
2018-10-19T11:20:11.197Z,39.53
2018-10-19T11:22:40.011Z,39.30
2018-10-19T11:25:09.184Z,37.40
2018-10-19T11:27:37.957Z,37.10
2018-10-19T11:30:06.817Z,37.50
2018-10-19T11:32:35.743Z,36.73
2018-10-19T11:35:04.715Z,39.47
2018-10-19T11:37:33.533Z,38.27
2018-10-19T11:40:19.654Z,39.20
2018-10-19T11:42:48.571Z,40.40
2018-10-19T11:45:17.471Z,39.73
2018-10-19T11:47:46.146Z,40.47
2018-10-19T11:50:14.936Z,41.27
2018-10-19T11:52:43.842Z,36.67
2018-10-19T11:55:12.592Z,36.03
2018-10-19T11:57:41.314Z,37.83
2018-10-19T12:00:10.535Z,40.33
2018-10-19T12:02:39.461Z,44.30
2018-10-19T12:05:08.787Z,47.67
2018-10-19T12:07:38.086Z,42.53
2018-10-19T12:10:08.252Z,42.67
2018-10-19T12:12:37.698Z,43.33
2018-10-19T12:15:06.980Z,52.87
2018-10-19T12:17:35.731Z,51.03
2018-10-19T12:20:05.206Z,53.10
2018-10-19T12:22:34.117Z,55.20
2018-10-19T12:25:03.100Z,56.57
2018-10-19T12:27:31.938Z,55.83
2018-10-19T12:30:00.852Z,53.27
2018-10-19T12:32:29.758Z,57.03
2018-10-19T12:34:58.418Z,47.43
2018-10-19T12:37:27.236Z,50.53
2018-10-19T12:39:56.122Z,49.60
2018-10-19T12:42:25.071Z,47.20
2018-10-19T12:44:54.112Z,45.23
2018-10-19T12:47:35.922Z,50.23
2018-10-19T12:50:05.025Z,46.13
2018-10-19T12:52:33.698Z,46.77
2018-10-19T12:55:02.496Z,50.97
2018-10-19T12:57:31.454Z,44.40
2018-10-19T13:00:00.316Z,48.97
2018-10-19T13:02:29.247Z,44.60
2018-10-19T13:04:58.149Z,40.20
2018-10-19T13:07:27.051Z,45.20
2018-10-19T13:09:55.967Z,45.47
2018-10-19T13:12:24.900Z,39.10
2018-10-19T13:14:53.828Z,35.07
2018-10-19T13:17:22.715Z,43.30
2018-10-19T13:19:51.631Z,40.23
2018-10-19T13:22:20.567Z,40.47
2018-10-19T13:24:49.484Z,45.30
2018-10-19T13:27:18.382Z,35.23
2018-10-19T13:29:47.309Z,38.70
2018-10-19T13:32:16.206Z,38.17
2018-10-19T13:34:45.145Z,40.43
2018-10-19T13:37:14.002Z,39.17
2018-10-19T13:39:42.909Z,39.30
2018-10-19T13:42:11.822Z,42.60
2018-10-19T13:44:40.774Z,38.97
2018-10-19T13:47:09.745Z,43.40
2018-10-19T13:49:38.573Z,44.73
2018-10-19T13:52:07.475Z,44.93
2018-10-19T13:54:36.416Z,41.10
2018-10-19T13:57:05.384Z,43.80
2018-10-19T13:59:34.246Z,45.13
2018-10-19T14:02:03.150Z,42.00
2018-10-19T14:04:32.094Z,42.97
2018-10-19T14:07:00.946Z,40.17
2018-10-19T14:09:29.878Z,45.43
2018-10-19T14:11:58.823Z,42.53
2018-10-19T14:14:27.727Z,41.83
2018-10-19T14:16:56.690Z,40.03
2018-10-19T14:19:25.564Z,43.57
2018-10-19T14:21:54.486Z,39.60
2018-10-19T14:24:23.381Z,35.60
2018-10-19T14:26:52.365Z,39.40
2018-10-19T14:29:21.183Z,43.40
2018-10-19T14:31:50.074Z,42.00
2018-10-19T14:34:18.998Z,43.70
2018-10-19T14:36:47.899Z,42.10
2018-10-19T14:39:16.647Z,38.00
2018-10-19T14:41:45.392Z,43.27
2018-10-19T14:44:14.306Z,49.17
2018-10-19T14:46:43.233Z,42.73
2018-10-19T14:49:12.161Z,43.80
2018-10-19T14:51:41.078Z,48.93
2018-10-19T14:54:09.988Z,46.03
2018-10-19T14:56:38.886Z,48.97
2018-10-19T14:59:07.863Z,47.63
2018-10-19T15:01:36.692Z,58.10
2018-10-19T15:04:06.505Z,57.27
2018-10-19T15:06:35.379Z,56.07
2018-10-19T15:09:06.028Z,64.77
2018-10-19T15:11:35.156Z,62.10
2018-10-19T15:14:03.835Z,64.57
2018-10-19T15:16:32.747Z,57.87
2018-10-19T15:19:01.674Z,60.17
2018-10-19T15:21:30.591Z,58.43
2018-10-19T15:23:59.590Z,57.80
2018-10-19T15:26:28.529Z,57.07
2018-10-19T15:28:57.453Z,55.77
2018-10-19T15:31:26.295Z,55.43
2018-10-19T15:33:55.211Z,56.23
2018-10-19T15:36:23.890Z,51.13
2018-10-19T15:38:52.655Z,53.17
2018-10-19T15:41:21.558Z,50.80
2018-10-19T15:43:50.458Z,50.63
2018-10-19T15:46:19.359Z,51.53
2018-10-19T15:48:48.250Z,47.10
2018-10-19T15:51:16.918Z,47.97
2018-10-19T15:53:45.710Z,43.30
2018-10-19T15:56:14.622Z,40.33
2018-10-19T15:58:43.508Z,43.33
2018-10-19T16:01:12.430Z,43.73
2018-10-19T16:03:41.621Z,44.03
2018-10-19T16:06:10.335Z,41.70
2018-10-19T16:08:39.058Z,41.47
2018-10-19T16:11:08.245Z,37.07
2018-10-19T16:13:37.134Z,40.80
2018-10-19T16:16:06.538Z,34.33
2018-10-19T16:18:35.434Z,36.50
2018-10-19T16:21:04.251Z,37.67
2018-10-19T16:23:33.062Z,35.20
2018-10-19T16:26:01.759Z,37.90
2018-10-19T16:28:30.451Z,31.97
2018-10-19T16:30:58.905Z,37.17
2018-10-19T16:33:27.759Z,34.90
2018-10-19T16:35:56.731Z,31.87
2018-10-19T16:38:25.602Z,30.67
2018-10-19T16:40:54.286Z,31.47
2018-10-19T16:43:23.069Z,37.20
2018-10-19T16:45:51.971Z,38.23
2018-10-19T16:48:20.866Z,36.23
2018-10-19T16:50:49.796Z,34.93
2018-10-19T16:53:18.460Z,33.80
2018-10-19T16:55:47.247Z,31.87
2018-10-19T16:58:16.237Z,38.33
2018-10-19T17:00:44.846Z,33.43
2018-10-19T17:03:13.407Z,33.57
2018-10-19T17:05:42.191Z,27.47
2018-10-19T17:08:11.090Z,36.00
2018-10-19T17:10:40.686Z,32.07
2018-10-19T17:13:09.547Z,35.17
2018-10-19T17:15:38.469Z,32.23
2018-10-19T17:18:07.180Z,27.73
2018-10-19T17:20:35.950Z,31.33
2018-10-19T17:23:05.099Z,33.47
2018-10-19T17:25:33.790Z,30.37
2018-10-19T17:28:02.326Z,28.13
2018-10-19T17:30:31.150Z,29.70
2018-10-19T17:33:00.214Z,28.47
2018-10-19T17:35:28.906Z,26.63
2018-10-19T17:37:57.823Z,36.73
2018-10-19T17:40:26.726Z,32.60
2018-10-19T17:42:55.673Z,30.67
2018-10-19T17:45:24.577Z,24.77
2018-10-19T17:47:53.548Z,31.30
2018-10-19T17:50:22.392Z,29.10
2018-10-19T17:52:51.075Z,29.00
2018-10-19T17:55:19.854Z,31.20
2018-10-19T17:57:48.565Z,36.10
2018-10-19T18:00:17.302Z,27.57
2018-10-19T18:02:45.722Z,27.57
2018-10-19T18:05:14.575Z,31.30
2018-10-19T18:07:43.486Z,31.10
2018-10-19T18:10:12.178Z,33.90
2018-10-19T18:12:40.959Z,33.20
2018-10-19T18:15:09.943Z,37.77
2018-10-19T18:17:39.126Z,33.53
2018-10-19T18:20:08.031Z,36.10
2018-10-19T18:22:37.137Z,33.03
2018-10-19T18:25:06.370Z,35.43
2018-10-19T18:27:35.311Z,30.53
2018-10-19T18:30:04.535Z,31.50
2018-10-19T18:32:33.213Z,28.03
2018-10-19T18:35:02.087Z,35.87
2018-10-19T18:37:30.882Z,24.93
2018-10-19T18:39:59.795Z,30.27
2018-10-19T18:42:28.702Z,34.33
2018-10-19T18:44:57.418Z,28.10
2018-10-19T18:47:26.223Z,30.07
2018-10-19T18:49:55.348Z,20.63
2018-10-19T18:52:24.219Z,23.03
2018-10-19T18:54:53.160Z,24.37
2018-10-19T18:57:22.050Z,24.10
2018-10-19T18:59:50.974Z,25.50
2018-10-19T19:02:19.886Z,21.93
2018-10-19T19:04:48.552Z,26.70
2018-10-19T19:07:17.588Z,22.00
2018-10-19T19:09:51.878Z,24.27
2018-10-19T19:12:20.568Z,22.23
2018-10-19T19:14:49.391Z,22.10
2018-10-19T19:17:18.358Z,23.83
2018-10-19T19:19:52.675Z,20.50
2018-10-19T19:22:21.358Z,24.57
2018-10-19T19:24:55.626Z,24.23
2018-10-19T19:27:24.302Z,22.87
2018-10-19T19:29:53.066Z,23.10
2018-10-19T19:32:22.036Z,24.27
2018-10-19T19:34:50.975Z,21.53
2018-10-19T19:37:19.930Z,21.43
2018-10-19T19:39:48.574Z,19.37
2018-10-19T19:42:22.659Z,19.13
2018-10-19T19:44:51.326Z,20.97
2018-10-19T19:47:25.487Z,19.60
2018-10-19T19:49:58.492Z,22.03
2018-10-19T19:52:27.262Z,21.17
2018-10-19T19:54:55.993Z,18.50
2018-10-19T19:57:24.624Z,17.40
2018-10-19T19:59:54.026Z,21.47
2018-10-19T20:02:22.722Z,22.60
2018-10-19T20:04:51.288Z,16.83
2018-10-19T20:07:20.107Z,23.73
2018-10-19T20:09:49.018Z,21.33
2018-10-19T20:12:17.736Z,18.77
2018-10-19T20:14:46.474Z,21.57
2018-10-19T20:17:15.479Z,19.53
2018-10-19T20:19:44.307Z,22.57
2018-10-19T20:22:12.982Z,20.93
2018-10-19T20:24:41.767Z,18.83
2018-10-19T20:27:10.633Z,18.30
2018-10-19T20:29:39.446Z,20.10
2018-10-19T20:32:08.398Z,19.10
2018-10-19T20:34:37.382Z,22.57
2018-10-19T20:37:06.258Z,16.20
2018-10-19T20:39:35.187Z,19.20
2018-10-19T20:42:04.128Z,18.43
2018-10-19T20:44:32.804Z,19.70
2018-10-19T20:47:02.439Z,22.93
2018-10-19T20:49:31.322Z,24.60
2018-10-19T20:52:00.008Z,26.97
2018-10-19T20:54:28.796Z,18.83
2018-10-19T20:56:57.462Z,23.97
2018-10-19T20:59:26.283Z,20.63
2018-10-19T21:01:55.360Z,16.90
2018-10-19T21:04:24.210Z,21.57
2018-10-19T21:06:53.012Z,25.80
2018-10-19T21:09:21.546Z,17.73
2018-10-19T21:11:50.334Z,24.10
2018-10-19T21:14:19.319Z,25.13
2018-10-19T21:16:48.010Z,20.00
2018-10-19T21:19:16.818Z,22.00
2018-10-19T21:21:45.472Z,24.93
2018-10-19T21:24:14.006Z,26.30
2018-10-19T21:26:42.560Z,21.50
2018-10-19T21:29:11.389Z,19.37
2018-10-19T21:31:40.242Z,20.60
2018-10-19T21:34:09.359Z,19.27
2018-10-19T21:36:37.982Z,23.23
2018-10-19T21:39:07.615Z,22.30
2018-10-19T21:41:36.460Z,16.33
2018-10-19T21:44:05.406Z,21.50
2018-10-19T21:46:34.262Z,18.07
2018-10-19T21:49:02.933Z,19.07
2018-10-19T21:51:31.829Z,17.57
2018-10-19T21:54:00.478Z,22.83
2018-10-19T21:56:29.331Z,18.97
2018-10-19T21:58:58.087Z,21.03
2018-10-19T22:01:26.569Z,21.57
2018-10-19T22:03:55.353Z,19.67
2018-10-19T22:06:24.263Z,16.43
2018-10-19T22:08:52.958Z,16.80
2018-10-19T22:11:21.990Z,15.60
2018-10-19T22:13:50.781Z,22.50
2018-10-19T22:16:19.687Z,18.10
2018-10-19T22:18:48.394Z,13.20
2018-10-19T22:21:16.929Z,18.23
2018-10-19T22:23:45.730Z,18.73
2018-10-19T22:26:14.432Z,20.97
2018-10-19T22:28:42.938Z,19.13
2018-10-19T22:31:11.883Z,22.10
2018-10-19T22:33:40.666Z,16.80
2018-10-19T22:36:09.342Z,19.40
2018-10-19T22:38:37.893Z,18.73
2018-10-19T22:41:06.531Z,19.10
2018-10-19T22:43:35.303Z,16.80
2018-10-19T22:46:04.250Z,26.73
2018-10-19T22:48:33.164Z,21.40
2018-10-19T22:51:01.818Z,25.33
2018-10-19T22:53:30.406Z,19.40
2018-10-19T22:55:59.189Z,18.33
2018-10-19T22:58:27.854Z,18.17
2018-10-19T23:00:56.597Z,17.50
2018-10-19T23:03:25.331Z,20.00
2018-10-19T23:05:54.255Z,20.27
2018-10-19T23:08:22.923Z,18.00
2018-10-19T23:10:51.471Z,19.50
2018-10-19T23:13:20.267Z,20.83
2018-10-19T23:15:49.222Z,15.63
2018-10-19T23:18:18.143Z,18.80
2018-10-19T23:20:47.058Z,22.07
2018-10-19T23:23:15.880Z,22.03
2018-10-19T23:25:44.317Z,23.57
2018-10-19T23:28:12.893Z,23.37
2018-10-19T23:30:41.701Z,19.60
2018-10-19T23:33:10.609Z,27.37
2018-10-19T23:35:39.479Z,21.33
2018-10-19T23:38:08.159Z,19.93
2018-10-19T23:40:36.787Z,20.17
2018-10-19T23:43:05.613Z,20.57
2018-10-19T23:45:34.481Z,20.73
2018-10-19T23:48:03.183Z,21.50
2018-10-19T23:50:32.025Z,24.03
2018-10-19T23:53:00.760Z,17.73
2018-10-19T23:55:29.483Z,22.43
2018-10-19T23:57:58.158Z,20.83
